Time;durP1;ratioP1;P1;durP2;ratioP2;P2;SDS_P1;SDS_P2;PMS_P1;PMS_P2;Temp;Humidity;BMP_temperature;BMP_pressure;BME280_temperature;BME280_humidity;BME280_pressure;Samples;Min_cycle;Max_cycle;Signal;HPM_P1;HPM_P2
2021/05/02 07:48:09;;;;;;;2.43;1.53;;;15.70;92.30;;;;;;4221796;23;20325;-71
2021/05/02 07:50:36;;;;;;;5.50;1.80;;;16.40;91.40;;;;;;4970803;28;20211;-72
2021/05/02 07:53:03;;;;;;;4.00;1.67;;;16.20;91.60;;;;;;4972960;28;20561;-74
2021/05/02 07:55:29;;;;;;;4.07;1.73;;;16.10;92.20;;;;;;4972974;28;20371;-77
2021/05/02 07:57:56;;;;;;;3.40;1.50;;;15.40;91.90;;;;;;4973453;28;20211;-80
2021/05/02 08:00:22;;;;;;;4.03;1.70;;;15.00;91.60;;;;;;4973895;28;20266;-72
2021/05/02 08:02:49;;;;;;;3.03;1.80;;;14.90;93.00;;;;;;4974122;28;20242;-71
2021/05/02 08:05:16;;;;;;;2.57;1.60;;;15.80;93.10;;;;;;4974015;28;20359;-70
2021/05/02 08:07:43;;;;;;;3.30;1.63;;;17.10;90.50;;;;;;4973280;28;20207;-75
2021/05/02 08:10:10;;;;;;;2.03;1.40;;;18.80;88.60;;;;;;4973685;28;20214;-72
2021/05/02 08:12:37;;;;;;;3.97;1.53;;;19.30;83.90;;;;;;4973138;28;20224;-83
2021/05/02 08:15:04;;;;;;;3.23;1.80;;;18.60;83.20;;;;;;4974385;28;20227;-74
2021/05/02 08:17:30;;;;;;;3.73;1.20;;;17.30;86.00;;;;;;4973707;28;20262;-72
2021/05/02 08:19:56;;;;;;;1.30;0.93;;;15.90;89.10;;;;;;4973789;28;20217;-72
2021/05/02 08:22:23;;;;;;;1.83;1.20;;;15.00;90.30;;;;;;4973924;28;20769;-75
2021/05/02 08:24:49;;;;;;;2.90;1.10;;;15.30;90.90;;;;;;4973821;28;20673;-73
2021/05/02 08:27:16;;;;;;;2.07;1.10;;;16.30;86.60;;;;;;4977385;28;20234;-83
2021/05/02 08:29:42;;;;;;;3.20;1.30;;;17.00;86.50;;;;;;4979025;28;20266;-83
2021/05/02 08:32:08;;;;;;;1.80;0.90;;;18.00;83.40;;;;;;4978887;28;20207;-88
2021/05/02 08:34:35;;;;;;;2.53;0.90;;;19.20;79.50;;;;;;4978909;28;20227;-82
2021/05/02 08:37:01;;;;;;;2.87;0.67;;;20.00;76.70;;;;;;4979125;28;20211;-74
2021/05/02 08:39:28;;;;;;;3.43;1.20;;;20.10;69.30;;;;;;4977602;28;20207;-77
2021/05/02 08:41:54;;;;;;;2.37;0.93;;;19.70;73.30;;;;;;4977678;28;20333;-79
2021/05/02 08:44:24;;;;;;;3.07;1.20;;;20.00;74.40;;;;;;4974040;28;20226;-73
2021/05/02 08:46:51;;;;;;;1.20;0.90;;;20.00;73.40;;;;;;4976268;28;20266;-69
2021/05/02 08:49:18;;;;;;;1.30;0.80;;;20.00;70.20;;;;;;4975372;28;20227;-74
2021/05/02 08:51:45;;;;;;;1.13;0.50;;;20.00;71.60;;;;;;4975551;28;20294;-70
2021/05/02 08:54:11;;;;;;;1.07;0.50;;;19.70;68.80;;;;;;4974913;28;20215;-72
2021/05/02 08:56:39;;;;;;;0.93;0.43;;;19.50;67.30;;;;;;4974972;28;20207;-68
2021/05/02 08:59:07;;;;;;;1.17;0.60;;;19.30;61.80;;;;;;4974470;28;20566;-76
2021/05/02 09:01:34;;;;;;;1.03;0.60;;;19.50;65.50;;;;;;4975605;28;20231;-71
2021/05/02 09:04:02;;;;;;;3.70;0.70;;;19.30;66.80;;;;;;4975433;28;20214;-70
2021/05/02 09:06:29;;;;;;;2.15;0.60;;;19.60;65.70;;;;;;4974909;28;20713;-72
2021/05/02 09:08:58;;;;;;;2.45;0.73;;;20.30;67.50;;;;;;4974719;28;20686;-71
2021/05/02 09:11:32;;;;;;;0.50;0.40;;;20.60;69.80;;;;;;4975504;28;20208;-76
2021/05/02 09:14:01;;;;;;;1.87;0.40;;;19.90;65.40;;;;;;4974202;28;20274;-72
2021/05/02 09:16:27;;;;;;;0.73;0.47;;;19.00;62.40;;;;;;4975243;28;20231;-79
2021/05/02 09:18:59;;;;;;;1.63;0.70;;;18.20;67.60;;;;;;4974925;28;20307;-72
2021/05/02 09:21:30;;;;;;;1.33;0.50;;;18.00;68.40;;;;;;4975258;28;20258;-76
2021/05/02 09:23:58;;;;;;;2.10;0.70;;;18.00;68.40;;;;;;4974532;28;20214;-74
2021/05/02 09:26:25;;;;;;;1.33;0.70;;;18.30;70.70;;;;;;4974845;28;20223;-74
2021/05/02 09:28:53;;;;;;;1.73;0.67;;;18.70;67.90;;;;;;4974954;28;20204;-85
2021/05/02 09:31:23;;;;;;;1.27;0.60;;;18.60;67.80;;;;;;4974920;28;20680;-74
2021/05/02 09:33:50;;;;;;;2.17;0.80;;;18.20;66.40;;;;;;4974622;28;20207;-79
2021/05/02 09:36:19;;;;;;;2.10;0.80;;;17.40;64.70;;;;;;4974973;28;20262;-75
2021/05/02 09:38:45;;;;;;;0.83;0.50;;;16.70;65.00;;;;;;4973832;28;20563;-71
2021/05/02 09:41:13;;;;;;;1.20;0.60;;;16.70;65.20;;;;;;4974359;28;20535;-82
2021/05/02 09:43:43;;;;;;;1.10;0.63;;;16.30;67.10;;;;;;4975692;28;20203;-72
2021/05/02 09:46:25;;;;;;;1.23;0.57;;;16.00;69.30;;;;;;4975755;28;20227;-74
2021/05/02 09:49:13;;;;;;;1.93;0.67;;;15.50;69.40;;;;;;4975315;28;20215;-73
2021/05/02 09:51:44;;;;;;;3.33;0.93;;;15.10;72.90;;;;;;4975670;28;20213;-82
2021/05/02 09:54:14;;;;;;;2.93;1.03;;;14.60;78.70;;;;;;4975284;28;20298;-73
2021/05/02 09:56:46;;;;;;;2.00;1.03;;;14.00;82.90;;;;;;4975810;28;20207;-82
2021/05/02 09:59:27;;;;;;;3.43;1.20;;;13.60;86.80;;;;;;4975688;28;20303;-74
2021/05/02 10:02:16;;;;;;;3.63;1.07;;;13.30;85.90;;;;;;4975366;28;20231;-73
2021/05/02 10:04:45;;;;;;;3.53;1.40;;;13.00;87.50;;;;;;4975143;28;20346;-72
2021/05/02 10:07:14;;;;;;;3.20;1.07;;;13.00;89.60;;;;;;4975667;28;20610;-75
2021/05/02 10:09:41;;;;;;;2.50;1.00;;;13.00;88.10;;;;;;4975302;28;20207;-81
2021/05/02 10:12:09;;;;;;;3.20;1.13;;;13.10;87.70;;;;;;4975347;28;20223;-71
2021/05/02 10:14:36;;;;;;;1.97;1.10;;;13.20;88.20;;;;;;4975130;28;20226;-70
2021/05/02 10:17:04;;;;;;;2.07;1.20;;;13.50;88.70;;;;;;4975097;28;20223;-69
2021/05/02 10:19:30;;;;;;;2.80;1.00;;;13.90;86.30;;;;;;4974467;28;20211;-71
2021/05/02 10:21:57;;;;;;;2.13;0.87;;;14.10;87.50;;;;;;4975082;28;20290;-77
2021/05/02 10:24:24;;;;;;;1.80;1.07;;;14.40;87.40;;;;;;4975222;28;20273;-73
2021/05/02 10:26:52;;;;;;;1.53;0.80;;;14.70;86.00;;;;;;4974827;28;20216;-72
2021/05/02 10:29:23;;;;;;;2.30;0.93;;;15.00;81.80;;;;;;4974839;28;20213;-71
2021/05/02 10:31:51;;;;;;;1.17;0.73;;;15.30;78.70;;;;;;4974770;28;20210;-70
2021/05/02 10:34:27;;;;;;;1.67;0.83;;;15.20;74.60;;;;;;4974639;28;20227;-69
2021/05/02 10:37:36;;;;;;;1.73;0.70;;;14.90;77.10;;;;;;4974540;28;20207;-69
2021/05/02 10:40:09;;;;;;;1.30;0.60;;;14.80;76.60;;;;;;4955789;29;21517;-69
2021/05/02 10:42:50;;;;;;;3.53;0.90;;;14.60;76.70;;;;;;4955310;28;20239;-71
2021/05/02 10:45:41;;;;;;;4.00;1.27;;;14.40;78.20;;;;;;4955573;28;20231;-69
2021/05/02 10:48:09;;;;;;;1.93;0.70;;;14.40;79.90;;;;;;4962013;28;20305;-70
2021/05/02 10:50:40;;;;;;;3.30;1.00;;;14.30;81.20;;;;;;4974687;28;20214;-70
2021/05/02 10:53:09;;;;;;;2.27;0.90;;;14.20;81.20;;;;;;4974738;28;20233;-69
2021/05/02 10:55:50;;;;;;;3.73;1.00;;;14.30;81.90;;;;;;4974536;28;20227;-69
2021/05/02 10:58:24;;;;;;;1.47;0.90;;;14.20;81.60;;;;;;4973956;28;20650;-70
2021/05/02 11:00:55;;;;;;;1.67;0.77;;;14.20;82.40;;;;;;4974303;28;20657;-70
2021/05/02 11:03:55;;;;;;;2.20;0.90;;;14.10;83.10;;;;;;4974004;28;20317;-70
2021/05/02 11:06:52;;;;;;;1.60;0.70;;;14.20;82.50;;;;;;4914623;29;20230;-69
2021/05/02 11:09:23;;;;;;;1.33;0.80;;;14.00;82.00;;;;;;4914897;29;20252;-70
2021/05/02 11:11:52;;;;;;;2.10;1.30;;;14.00;78.90;;;;;;4955909;28;20615;-71
2021/05/02 11:14:39;;;;;;;1.37;0.77;;;13.70;80.90;;;;;;4974397;28;20211;-71
2021/05/02 11:17:37;;;;;;;3.27;2.20;;;13.30;85.80;;;;;;4969725;28;20670;-70
2021/05/02 11:20:05;;;;;;;1.53;1.00;;;13.10;87.10;;;;;;4974166;28;20573;-69
2021/05/02 11:22:48;;;;;;;1.63;1.10;;;12.80;88.10;;;;;;4973865;28;20289;-70
2021/05/02 11:25:17;;;;;;;3.90;1.10;;;12.60;88.80;;;;;;4974261;28;20231;-69
2021/05/02 11:30:34;;;;;;;1.90;0.87;;;12.50;90.00;;;;;;4974176;28;20210;-69
2021/05/02 11:33:01;;;;;;;3.37;1.10;;;12.60;90.20;;;;;;4974204;28;20207;-74
2021/05/02 11:35:57;;;;;;;1.43;0.90;;;12.90;90.20;;;;;;4974010;28;20246;-72
2021/05/02 11:38:39;;;;;;;2.53;0.83;;;13.00;90.30;;;;;;4973618;28;20207;-71
2021/05/02 11:41:08;;;;;;;2.67;1.10;;;13.30;90.20;;;;;;4974160;28;20207;-72
2021/05/02 11:43:37;;;;;;;1.70;1.07;;;13.30;89.10;;;;;;4974324;28;20241;-74
2021/05/02 11:46:06;;;;;;;1.80;0.67;;;13.10;88.70;;;;;;4974182;28;20234;-76
2021/05/02 11:48:34;;;;;;;5.13;1.20;;;13.10;88.10;;;;;;4974179;28;20219;-71
2021/05/02 11:51:02;;;;;;;5.20;0.93;;;13.30;88.20;;;;;;4973923;28;20293;-75
2021/05/02 11:53:37;;;;;;;1.40;1.00;;;13.70;87.10;;;;;;4967903;28;20243;-74
2021/05/02 11:56:11;;;;;;;2.50;0.90;;;14.10;86.10;;;;;;4964625;28;20226;-73
2021/05/02 11:58:38;;;;;;;1.03;0.77;;;14.00;80.40;;;;;;4973170;28;20210;-72
2021/05/02 12:01:05;;;;;;;2.37;0.90;;;13.90;80.90;;;;;;4975212;28;20207;-70
2021/05/02 12:03:36;;;;;;;1.53;0.90;;;13.80;83.30;;;;;;4977407;28;20780;-73
2021/05/02 12:06:03;;;;;;;2.17;1.23;;;13.50;85.80;;;;;;4977582;28;20329;-70
2021/05/02 12:08:31;;;;;;;4.10;1.33;;;13.30;90.20;;;;;;4977358;28;20208;-71
2021/05/02 12:10:59;;;;;;;2.93;1.13;;;13.30;89.70;;;;;;4977799;28;20246;-72
2021/05/02 12:13:34;;;;;;;4.77;1.00;;;13.30;92.20;;;;;;4977402;28;20203;-72
2021/05/02 12:16:02;;;;;;;1.40;1.00;;;13.60;92.10;;;;;;4977109;28;20242;-72
2021/05/02 12:18:50;;;;;;;1.53;1.20;;;13.90;90.40;;;;;;4977080;28;20246;-71
2021/05/02 12:21:25;;;;;;;1.67;1.20;;;14.00;88.70;;;;;;4977087;28;20217;-73
2021/05/02 12:23:51;;;;;;;2.00;1.00;;;14.20;86.50;;;;;;4977426;28;20301;-73
2021/05/02 12:26:18;;;;;;;1.80;1.00;;;14.40;82.80;;;;;;4976760;28;20231;-72
2021/05/02 12:28:46;;;;;;;1.63;1.00;;;14.20;84.70;;;;;;4977157;28;20601;-70
2021/05/02 12:31:14;;;;;;;1.57;0.80;;;14.10;83.10;;;;;;4977052;28;20207;-71
2021/05/02 12:33:42;;;;;;;1.60;0.93;;;14.30;81.80;;;;;;4976632;28;20211;-72
2021/05/02 12:36:11;;;;;;;1.70;0.87;;;14.40;79.80;;;;;;4976930;28;20590;-71
2021/05/02 12:38:38;;;;;;;1.03;0.80;;;14.50;80.40;;;;;;4976914;28;20208;-71
2021/05/02 12:41:04;;;;;;;3.03;0.93;;;14.40;78.50;;;;;;4976771;28;20565;-70
2021/05/02 12:43:33;;;;;;;0.77;0.77;;;14.40;80.30;;;;;;4976533;28;20716;-70
2021/05/02 12:46:01;;;;;;;2.53;0.80;;;14.60;79.40;;;;;;4976835;28;20698;-70
2021/05/02 12:48:32;;;;;;;2.27;1.10;;;14.50;80.10;;;;;;4976783;28;20215;-70
2021/05/02 12:51:00;;;;;;;2.03;1.00;;;14.60;80.60;;;;;;4976800;28;20203;-70
2021/05/02 12:53:37;;;;;;;2.13;1.00;;;14.60;80.60;;;;;;4976590;28;20207;-70
2021/05/02 12:56:05;;;;;;;1.37;0.70;;;14.80;79.70;;;;;;4976635;28;20230;-70
2021/05/02 12:58:36;;;;;;;1.20;0.90;;;15.00;79.50;;;;;;4976737;28;20262;-71
2021/05/02 13:01:09;;;;;;;4.23;0.97;;;15.10;78.00;;;;;;4976708;28;20207;-73
2021/05/02 13:03:37;;;;;;;2.33;0.83;;;15.20;77.90;;;;;;4976401;28;20632;-71
2021/05/02 13:06:06;;;;;;;2.03;1.00;;;15.10;72.70;;;;;;4976395;28;20720;-70
2021/05/02 13:08:33;;;;;;;1.80;0.93;;;14.90;74.30;;;;;;4976360;28;20207;-71
2021/05/02 13:11:00;;;;;;;3.47;0.77;;;14.60;74.80;;;;;;4976490;28;20218;-70
2021/05/02 13:13:26;;;;;;;2.17;1.20;;;14.50;75.80;;;;;;4976247;28;20293;-71
2021/05/02 13:15:52;;;;;;;1.73;1.07;;;14.40;76.90;;;;;;4976337;28;20231;-70
2021/05/02 13:18:20;;;;;;;1.50;1.00;;;14.40;75.50;;;;;;4976793;28;20218;-69
2021/05/02 13:20:52;;;;;;;1.87;0.90;;;14.40;76.20;;;;;;4975948;28;20670;-70
2021/05/02 13:23:34;;;;;;;1.67;0.93;;;14.50;76.90;;;;;;4975877;28;20241;-70
2021/05/02 13:26:20;;;;;;;1.70;0.90;;;14.70;77.00;;;;;;4975945;28;20732;-70
2021/05/02 13:29:18;;;;;;;2.30;1.20;;;14.90;75.90;;;;;;4976035;28;20207;-71
2021/05/02 13:31:52;;;;;;;2.83;1.20;;;15.20;76.00;;;;;;4976329;28;20207;-70
2021/05/02 13:34:20;;;;;;;1.47;1.00;;;15.40;74.40;;;;;;4975749;28;20240;-71
2021/05/02 13:36:48;;;;;;;3.07;1.00;;;15.40;73.80;;;;;;4974948;28;20214;-70
2021/05/02 13:39:17;;;;;;;3.87;1.20;;;15.40;74.90;;;;;;4975098;28;20609;-70
2021/05/02 13:41:44;;;;;;;1.87;1.07;;;15.20;76.50;;;;;;4975808;28;20211;-70
2021/05/02 13:44:13;;;;;;;2.77;1.13;;;15.40;77.40;;;;;;4976048;28;20203;-69
2021/05/02 13:46:39;;;;;;;1.87;1.03;;;15.40;77.10;;;;;;4975840;28;20211;-70
2021/05/02 13:49:06;;;;;;;1.40;1.10;;;15.20;79.30;;;;;;4975882;28;20215;-71
2021/05/02 13:51:34;;;;;;;2.10;1.00;;;14.90;78.60;;;;;;4975596;28;20213;-71
2021/05/02 13:54:00;;;;;;;1.27;1.10;;;14.70;80.60;;;;;;4975433;28;20207;-71
2021/05/02 13:56:26;;;;;;;1.40;1.30;;;14.30;80.20;;;;;;4975276;28;20278;-71
2021/05/02 13:58:54;;;;;;;2.03;1.17;;;14.20;81.60;;;;;;4975400;28;20302;-72
2021/05/02 14:01:21;;;;;;;2.30;1.30;;;14.10;82.30;;;;;;4975708;28;20211;-71
2021/05/02 14:03:50;;;;;;;1.73;1.30;;;14.10;82.00;;;;;;4975336;28;20705;-72
2021/05/02 14:06:16;;;;;;;1.23;1.00;;;14.10;81.00;;;;;;4975516;28;20227;-72
2021/05/02 14:08:43;;;;;;;2.47;1.13;;;14.00;80.50;;;;;;4975452;28;20580;-71
2021/05/02 14:11:09;;;;;;;3.83;1.23;;;14.00;81.00;;;;;;4975606;28;20215;-71
2021/05/02 14:13:36;;;;;;;1.40;1.00;;;14.00;80.40;;;;;;4975184;28;20211;-70
2021/05/02 14:16:02;;;;;;;1.63;1.00;;;14.10;81.70;;;;;;4975314;28;20227;-71
2021/05/02 14:18:29;;;;;;;1.17;0.80;;;14.10;81.30;;;;;;4975304;28;20207;-70
2021/05/02 14:20:56;;;;;;;1.70;0.97;;;14.00;81.80;;;;;;4974859;28;20207;-71
2021/05/02 14:23:22;;;;;;;2.60;1.10;;;14.10;84.90;;;;;;4973934;28;20231;-70
2021/05/02 14:25:50;;;;;;;2.63;1.13;;;14.20;83.40;;;;;;4974739;28;20578;-70
2021/05/02 14:28:17;;;;;;;2.50;1.00;;;14.40;81.00;;;;;;4975034;28;20310;-71
2021/05/02 14:30:43;;;;;;;2.33;1.30;;;14.70;81.30;;;;;;4975021;28;20212;-71
2021/05/02 14:33:10;;;;;;;1.00;0.90;;;14.90;80.20;;;;;;4975039;28;20305;-70
2021/05/02 14:35:36;;;;;;;1.10;0.87;;;15.10;81.50;;;;;;4974620;28;20235;-71
2021/05/02 14:38:03;;;;;;;3.50;1.37;;;15.30;80.90;;;;;;4974884;28;20211;-72
2021/05/02 14:40:29;;;;;;;2.53;1.27;;;15.50;78.70;;;;;;4975224;28;20215;-73
2021/05/02 14:42:56;;;;;;;2.23;1.50;;;15.40;78.10;;;;;;4975288;28;20235;-72
2021/05/02 14:45:23;;;;;;;2.80;1.27;;;15.20;78.60;;;;;;4974707;28;20235;-71
2021/05/02 14:47:49;;;;;;;1.77;1.20;;;14.90;80.10;;;;;;4974717;28;20307;-71
2021/05/02 14:50:16;;;;;;;2.00;1.23;;;14.40;80.50;;;;;;4974527;28;20662;-71
2021/05/02 14:52:43;;;;;;;2.67;1.40;;;14.10;82.20;;;;;;4974702;28;20661;-71
2021/05/02 14:55:12;;;;;;;2.50;1.30;;;13.90;82.60;;;;;;4974758;28;20227;-73
2021/05/02 14:57:38;;;;;;;1.10;1.00;;;13.90;83.70;;;;;;4974347;28;20215;-73
2021/05/02 15:00:08;;;;;;;2.87;1.40;;;13.90;84.30;;;;;;4974207;28;20598;-72
2021/05/02 15:02:35;;;;;;;2.80;1.30;;;14.00;84.80;;;;;;4974277;28;20706;-70
2021/05/02 15:05:01;;;;;;;1.97;1.27;;;14.20;82.50;;;;;;4974212;28;20224;-72
2021/05/02 15:07:27;;;;;;;2.20;1.20;;;14.40;82.70;;;;;;4974425;28;20544;-72
2021/05/02 15:09:54;;;;;;;2.50;1.40;;;14.40;86.10;;;;;;4974664;28;20214;-72
2021/05/02 15:12:20;;;;;;;2.93;1.40;;;14.40;85.20;;;;;;4974469;28;20215;-73
2021/05/02 15:14:46;;;;;;;2.03;1.40;;;14.40;82.70;;;;;;4974225;28;20231;-71
2021/05/02 15:17:13;;;;;;;2.10;1.50;;;14.40;82.90;;;;;;4974250;28;20210;-71
2021/05/02 15:19:40;;;;;;;2.50;2.10;;;14.30;81.30;;;;;;4974109;28;20208;-71
2021/05/02 15:22:11;;;;;;;2.07;1.27;;;14.30;82.60;;;;;;4973826;28;20708;-72
2021/05/02 15:24:37;;;;;;;2.57;1.50;;;14.40;81.80;;;;;;4973944;28;20265;-72
2021/05/02 15:27:04;;;;;;;1.97;1.37;;;14.50;81.90;;;;;;4974189;28;20217;-72
2021/05/02 15:29:30;;;;;;;2.33;1.37;;;14.40;82.00;;;;;;4973902;28;20218;-71
2021/05/02 15:31:56;;;;;;;1.87;1.50;;;14.30;80.40;;;;;;4974258;28;20656;-71
2021/05/02 15:34:23;;;;;;;1.83;1.00;;;14.20;81.60;;;;;;4974287;28;20610;-71
2021/05/02 15:36:49;;;;;;;1.17;0.90;;;14.00;82.30;;;;;;4978025;28;20684;-70
2021/05/02 15:39:16;;;;;;;3.17;1.00;;;13.90;82.10;;;;;;4978174;28;20211;-72
2021/05/02 15:41:42;;;;;;;2.33;1.40;;;13.70;81.60;;;;;;4978150;28;20207;-71
2021/05/02 15:44:10;;;;;;;3.90;1.03;;;13.60;82.10;;;;;;4977711;28;20245;-72
2021/05/02 15:46:36;;;;;;;1.13;0.90;;;13.40;82.70;;;;;;4977696;28;20591;-71
2021/05/02 15:49:03;;;;;;;1.20;1.07;;;13.30;83.40;;;;;;4977832;28;20310;-70
2021/05/02 15:51:31;;;;;;;2.93;1.40;;;13.40;83.20;;;;;;4977763;28;20203;-71
2021/05/02 15:53:57;;;;;;;4.13;1.30;;;13.50;81.10;;;;;;4978204;28;20211;-70
2021/05/02 15:56:23;;;;;;;1.27;0.83;;;13.50;82.40;;;;;;4977795;28;20227;-71
2021/05/02 15:58:49;;;;;;;2.67;1.00;;;13.40;83.40;;;;;;4977921;28;20211;-70
2021/05/02 16:01:16;;;;;;;1.63;1.20;;;13.40;81.80;;;;;;4977427;28;20226;-71
2021/05/02 16:03:43;;;;;;;1.83;1.00;;;13.50;81.20;;;;;;4977469;28;20231;-71
2021/05/02 16:06:09;;;;;;;1.47;1.00;;;13.50;81.30;;;;;;4977843;28;20740;-73
2021/05/02 16:08:36;;;;;;;2.37;1.27;;;13.50;80.80;;;;;;4977736;28;20207;-71
2021/05/02 16:11:03;;;;;;;2.00;0.87;;;13.30;81.20;;;;;;4977562;28;20211;-71
2021/05/02 16:13:29;;;;;;;1.17;0.80;;;13.10;81.20;;;;;;4977518;28;20215;-71
2021/05/02 16:15:55;;;;;;;4.90;0.93;;;12.90;81.60;;;;;;4977307;28;20235;-71
2021/05/02 16:18:23;;;;;;;2.30;0.80;;;12.80;81.10;;;;;;4977595;28;20216;-71
2021/05/02 16:20:50;;;;;;;2.03;0.80;;;12.80;80.40;;;;;;4977437;28;20204;-70
2021/05/02 16:23:16;;;;;;;4.13;0.90;;;12.80;82.00;;;;;;4977678;28;20247;-71
2021/05/02 16:25:43;;;;;;;2.27;0.80;;;12.80;82.00;;;;;;4977196;28;20282;-71
2021/05/02 16:28:10;;;;;;;1.20;0.80;;;12.60;80.50;;;;;;4977107;28;20632;-71
2021/05/02 16:30:37;;;;;;;1.80;1.03;;;12.50;80.10;;;;;;4977123;28;20206;-70
2021/05/02 16:33:04;;;;;;;0.87;0.70;;;12.40;81.40;;;;;;4977082;28;20214;-71
2021/05/02 16:35:30;;;;;;;1.20;0.90;;;12.30;79.90;;;;;;4977160;28;20235;-71
2021/05/02 16:37:56;;;;;;;1.40;0.90;;;12.30;80.10;;;;;;4977185;28;20222;-71
2021/05/02 16:40:23;;;;;;;1.03;0.80;;;12.30;80.20;;;;;;4977146;28;20207;-71
2021/05/02 16:42:50;;;;;;;1.23;0.73;;;12.30;79.70;;;;;;4976673;28;20610;-70
2021/05/02 16:45:16;;;;;;;3.03;1.00;;;12.30;80.20;;;;;;4976864;28;20308;-71
2021/05/02 16:47:43;;;;;;;2.73;0.93;;;12.10;79.30;;;;;;4976330;28;20614;-71
2021/05/02 16:50:10;;;;;;;0.97;0.67;;;12.10;80.40;;;;;;4977188;28;20233;-72
2021/05/02 16:52:37;;;;;;;1.50;0.80;;;12.20;79.30;;;;;;4976897;28;20207;-73
2021/05/02 16:55:04;;;;;;;1.67;0.80;;;12.30;79.50;;;;;;4976446;28;20235;-71
2021/05/02 16:57:30;;;;;;;1.37;0.80;;;12.40;79.20;;;;;;4977153;28;20646;-71
2021/05/02 16:59:57;;;;;;;2.10;0.67;;;12.30;79.40;;;;;;4976868;28;20211;-71
2021/05/02 17:02:24;;;;;;;1.27;0.70;;;12.20;79.10;;;;;;4976534;28;20227;-73
2021/05/02 17:04:50;;;;;;;1.90;1.07;;;12.10;78.90;;;;;;4976275;28;20231;-73
2021/05/02 17:07:16;;;;;;;1.30;0.70;;;12.10;78.70;;;;;;4976621;28;20207;-71
2021/05/02 17:09:42;;;;;;;1.67;0.80;;;12.00;78.00;;;;;;4976459;28;20207;-71
2021/05/02 17:12:09;;;;;;;1.27;0.63;;;12.00;78.40;;;;;;4976479;28;20211;-70
2021/05/02 17:14:36;;;;;;;0.77;0.50;;;12.00;77.90;;;;;;4976442;28;20231;-71
2021/05/02 17:17:04;;;;;;;1.37;0.53;;;12.10;78.20;;;;;;4976308;28;20203;-71
2021/05/02 17:19:30;;;;;;;1.70;0.50;;;12.20;77.60;;;;;;4976450;28;20207;-71
2021/05/02 17:21:57;;;;;;;0.50;0.47;;;12.10;77.40;;;;;;4975991;28;20211;-72
2021/05/02 17:24:23;;;;;;;1.47;0.60;;;12.00;77.50;;;;;;4972540;28;20306;-71
2021/05/02 17:26:49;;;;;;;0.70;0.40;;;12.00;77.40;;;;;;4975248;28;20274;-70
2021/05/02 17:29:18;;;;;;;1.17;0.50;;;11.90;77.00;;;;;;4976000;28;20622;-71
2021/05/02 17:31:44;;;;;;;0.60;0.50;;;12.00;78.10;;;;;;4976582;28;20210;-71
2021/05/02 17:34:11;;;;;;;1.00;0.50;;;11.90;78.30;;;;;;4975767;28;20208;-72
2021/05/02 17:36:38;;;;;;;0.93;0.50;;;11.90;77.90;;;;;;4975863;28;20215;-71
2021/05/02 17:39:05;;;;;;;0.50;0.40;;;12.00;78.40;;;;;;4975936;28;20736;-71
2021/05/02 17:41:31;;;;;;;1.67;0.53;;;11.80;77.50;;;;;;4975820;28;20211;-71
2021/05/02 17:43:57;;;;;;;0.70;0.40;;;11.70;77.40;;;;;;4975673;28;20319;-72
2021/05/02 17:46:24;;;;;;;1.27;0.87;;;11.70;78.30;;;;;;4975623;28;20638;-72
2021/05/02 17:48:50;;;;;;;1.30;0.50;;;11.60;78.20;;;;;;4975331;28;20717;-72
2021/05/02 17:51:17;;;;;;;1.63;1.10;;;11.60;78.50;;;;;;4975618;28;20218;-71
2021/05/02 17:53:43;;;;;;;4.73;0.67;;;11.60;78.00;;;;;;4975459;28;20207;-71
2021/05/02 17:56:10;;;;;;;0.50;0.40;;;11.50;76.80;;;;;;4975424;28;20228;-70
2021/05/02 17:58:36;;;;;;;4.27;1.90;;;11.50;75.60;;;;;;4974515;28;20230;-70
2021/05/02 18:01:03;;;;;;;2.10;0.93;;;11.50;75.80;;;;;;4975554;28;20285;-70
2021/05/02 18:03:30;;;;;;;0.40;0.40;;;11.40;76.00;;;;;;4975461;28;20242;-71
2021/05/02 18:05:56;;;;;;;0.70;0.43;;;11.40;75.70;;;;;;4975253;28;20578;-70
2021/05/02 18:08:25;;;;;;;0.80;0.40;;;11.30;76.30;;;;;;4975433;28;20212;-70
2021/05/02 18:10:51;;;;;;;1.33;0.60;;;11.30;76.50;;;;;;4975576;28;20258;-72
2021/05/02 18:13:18;;;;;;;0.93;0.40;;;11.20;76.20;;;;;;4975507;28;20543;-71
2021/05/02 18:15:44;;;;;;;0.93;0.53;;;11.20;76.40;;;;;;4975493;28;20227;-72
2021/05/02 18:18:13;;;;;;;0.70;0.30;;;11.20;77.50;;;;;;4975313;28;20237;-71
2021/05/02 18:20:39;;;;;;;0.70;0.43;;;11.20;77.00;;;;;;4971501;28;20678;-73
2021/05/02 18:23:05;;;;;;;0.50;0.40;;;11.20;77.40;;;;;;4964229;28;20239;-71
2021/05/02 18:25:33;;;;;;;0.70;0.50;;;11.20;78.00;;;;;;4968324;28;20718;-71
2021/05/02 18:28:00;;;;;;;1.77;0.57;;;11.30;78.10;;;;;;4962155;28;20214;-71
2021/05/02 18:30:26;;;;;;;1.20;0.67;;;11.10;78.00;;;;;;4963364;28;20252;-73
2021/05/02 18:32:53;;;;;;;1.00;0.60;;;11.00;78.10;;;;;;4966322;28;20570;-72
2021/05/02 18:35:19;;;;;;;0.93;0.40;;;10.90;78.60;;;;;;4968497;28;20712;-73
2021/05/02 18:37:45;;;;;;;3.80;0.60;;;10.90;78.90;;;;;;4967789;28;20662;-71
2021/05/02 18:40:12;;;;;;;1.50;0.30;;;10.70;80.00;;;;;;4972184;28;20199;-70
2021/05/02 18:42:39;;;;;;;1.83;0.93;;;10.70;81.00;;;;;;4966721;28;20240;-70
2021/05/02 18:45:07;;;;;;;2.00;0.80;;;10.70;80.60;;;;;;4958558;28;20227;-71
2021/05/02 18:47:33;;;;;;;0.93;0.80;;;10.80;81.80;;;;;;4963691;28;20215;-70
2021/05/02 18:50:00;;;;;;;1.00;0.87;;;10.70;82.70;;;;;;4968812;28;20211;-70
2021/05/02 18:52:27;;;;;;;1.33;0.90;;;10.80;82.40;;;;;;4964114;28;20315;-70
2021/05/02 18:54:53;;;;;;;1.23;0.70;;;10.80;83.10;;;;;;4968233;28;20230;-70
2021/05/02 18:57:19;;;;;;;0.70;0.50;;;10.70;83.90;;;;;;4960582;28;20267;-70
2021/05/02 18:59:47;;;;;;;0.90;0.60;;;10.70;84.70;;;;;;4963922;28;20211;-70
2021/05/02 19:02:13;;;;;;;3.77;0.80;;;10.60;85.30;;;;;;4969315;28;20212;-69
2021/05/02 19:04:39;;;;;;;3.80;0.80;;;10.60;86.00;;;;;;4962854;28;20730;-70
2021/05/02 19:07:05;;;;;;;0.97;0.57;;;10.60;86.20;;;;;;4970728;28;20543;-71
2021/05/02 19:09:32;;;;;;;1.90;0.70;;;10.60;86.50;;;;;;4963825;28;20677;-71
2021/05/02 19:11:58;;;;;;;0.97;0.50;;;10.50;86.90;;;;;;4963878;28;20270;-71
2021/05/02 19:14:24;;;;;;;2.40;0.60;;;10.40;87.90;;;;;;4966509;28;20613;-71
2021/05/02 19:16:52;;;;;;;1.77;0.57;;;10.30;89.00;;;;;;4970103;28;20271;-70
2021/05/02 19:19:18;;;;;;;1.03;0.60;;;10.20;90.50;;;;;;4965169;28;20207;-70
2021/05/02 19:21:44;;;;;;;2.37;1.10;;;10.20;90.50;;;;;;4969482;28;20206;-70
2021/05/02 19:24:12;;;;;;;1.40;1.00;;;10.10;91.00;;;;;;4963545;28;20236;-70
2021/05/02 19:26:39;;;;;;;1.87;0.90;;;10.00;90.90;;;;;;4969867;28;20203;-70
2021/05/02 19:29:06;;;;;;;1.33;0.70;;;10.00;91.60;;;;;;4956713;28;20210;-70
2021/05/02 19:31:34;;;;;;;2.10;1.10;;;9.90;91.90;;;;;;4964319;28;20214;-70
2021/05/02 19:34:01;;;;;;;1.83;1.10;;;9.80;92.00;;;;;;4963738;28;20219;-70
2021/05/02 19:36:27;;;;;;;1.60;1.20;;;9.70;92.50;;;;;;4962746;28;20235;-71
2021/05/02 19:38:54;;;;;;;1.90;0.90;;;9.60;92.80;;;;;;4965635;28;20211;-70
2021/05/02 19:41:20;;;;;;;1.93;1.00;;;9.50;93.20;;;;;;4965069;28;20208;-70
2021/05/02 19:43:46;;;;;;;2.30;1.20;;;9.40;93.30;;;;;;4968363;28;20231;-69
2021/05/02 19:46:13;;;;;;;1.53;0.93;;;9.30;93.80;;;;;;4967671;28;20258;-70
2021/05/02 19:48:39;;;;;;;5.40;1.30;;;9.30;94.40;;;;;;4960551;28;20216;-71
2021/05/02 19:51:06;;;;;;;2.13;1.30;;;9.20;94.60;;;;;;4960231;28;20203;-73
2021/05/02 19:53:33;;;;;;;2.33;1.40;;;9.10;94.90;;;;;;4966320;28;20278;-70
2021/05/02 19:55:59;;;;;;;2.87;1.37;;;9.00;95.20;;;;;;4960919;28;20602;-70
2021/05/02 19:58:26;;;;;;;3.77;1.60;;;8.90;95.40;;;;;;4959203;28;20201;-70
2021/05/02 20:00:52;;;;;;;1.77;0.97;;;8.80;95.80;;;;;;4958626;28;20212;-69
2021/05/02 20:03:18;;;;;;;1.90;1.20;;;8.70;96.20;;;;;;4965756;28;20231;-69
2021/05/02 20:05:45;;;;;;;2.20;1.30;;;8.60;96.60;;;;;;4968295;28;20223;-69
2021/05/02 20:08:12;;;;;;;1.77;0.90;;;8.50;97.20;;;;;;4966766;28;20211;-70
2021/05/02 20:10:39;;;;;;;2.67;1.10;;;8.50;97.80;;;;;;4963704;28;20215;-71
2021/05/02 20:13:07;;;;;;;1.10;1.00;;;8.40;98.10;;;;;;4967544;28;20230;-69
2021/05/02 20:15:33;;;;;;;4.37;1.20;;;8.40;98.30;;;;;;4961419;28;20232;-69
2021/05/02 20:18:00;;;;;;;1.20;1.10;;;8.40;98.50;;;;;;4957549;28;20227;-70
2021/05/02 20:20:26;;;;;;;2.80;1.17;;;8.20;98.90;;;;;;4967362;28;20211;-70
2021/05/02 20:22:53;;;;;;;1.60;1.13;;;8.20;99.10;;;;;;4966992;28;20236;-69
2021/05/02 20:25:21;;;;;;;2.00;1.20;;;8.10;99.50;;;;;;4961924;28;20227;-70
2021/05/02 20:27:48;;;;;;;1.60;1.10;;;8.00;99.90;;;;;;4971470;28;20258;-69
2021/05/02 20:30:15;;;;;;;1.77;1.00;;;7.80;99.90;;;;;;4966756;28;20302;-70
2021/05/02 20:32:42;;;;;;;1.93;1.17;;;7.70;99.90;;;;;;4969455;28;20301;-69
2021/05/02 20:35:15;;;;;;;2.67;1.00;;;7.60;99.90;;;;;;4960484;28;20231;-69
2021/05/02 20:37:42;;;;;;;2.67;1.17;;;7.50;99.90;;;;;;4971358;28;20246;-69
2021/05/02 20:40:10;;;;;;;1.73;1.07;;;7.50;99.90;;;;;;4964187;28;20214;-69
2021/05/02 20:42:37;;;;;;;3.30;1.00;;;7.40;99.90;;;;;;4960290;28;20243;-70
2021/05/02 20:45:05;;;;;;;2.03;1.13;;;7.40;99.90;;;;;;4971950;28;20250;-69